createdAt,value
2022-08-05T00:00:16.690Z,5.10
2022-08-05T00:02:51.345Z,5.10
2022-08-05T00:06:01.666Z,5.70
2022-08-05T00:08:32.761Z,5.28
2022-08-05T00:11:01.424Z,5.18
2022-08-05T00:13:38.715Z,4.72
2022-08-05T00:16:10.947Z,4.60
2022-08-05T00:18:42.162Z,4.40
2022-08-05T00:21:10.970Z,4.38
2022-08-05T00:23:45.767Z,4.68
2022-08-05T00:26:23.197Z,4.03
2022-08-05T00:28:51.771Z,3.80
2022-08-05T00:31:54.420Z,4.60
2022-08-05T00:34:56.987Z,3.75
2022-08-05T00:37:09.721Z,4.18
2022-08-05T00:39:41.577Z,3.65
2022-08-05T00:42:31.938Z,4.07
2022-08-05T00:45:00.570Z,3.78
2022-08-05T00:47:53.267Z,4.10
2022-08-05T00:50:16.892Z,3.95
2022-08-05T00:52:45.402Z,3.47
2022-08-05T00:55:15.047Z,3.63
2022-08-05T00:57:58.581Z,3.70
2022-08-05T01:00:28.476Z,3.95
2022-08-05T01:02:57.085Z,4.07
2022-08-05T01:05:27.463Z,4.50
2022-08-05T01:08:40.576Z,4.10
2022-08-05T01:10:51.574Z,4.10
2022-08-05T01:13:57.811Z,5.00
2022-08-05T01:16:30.171Z,4.95
2022-08-05T01:19:05.528Z,5.95
2022-08-05T01:21:53.684Z,5.53
2022-08-05T01:24:42.800Z,5.47
2022-08-05T01:27:25.817Z,6.45
2022-08-05T01:30:01.975Z,5.88
2022-08-05T01:32:33.263Z,7.15
2022-08-05T01:35:03.860Z,7.28
2022-08-05T01:37:46.971Z,7.35
2022-08-05T01:40:18.014Z,7.00
2022-08-05T01:42:47.504Z,7.53
2022-08-05T01:45:17.877Z,6.72
2022-08-05T01:47:50.214Z,6.53
2022-08-05T01:50:28.534Z,6.68
2022-08-05T01:53:00.931Z,7.45
2022-08-05T01:55:36.204Z,7.35
2022-08-05T01:58:09.365Z,8.43
2022-08-05T02:00:50.027Z,9.43
2022-08-05T02:03:29.079Z,9.43
2022-08-05T02:06:03.791Z,9.88
2022-08-05T02:08:58.137Z,8.52
2022-08-05T02:11:34.164Z,7.82
2022-08-05T02:14:08.527Z,7.13
2022-08-05T02:16:52.269Z,9.00
2022-08-05T02:19:34.298Z,9.35
2022-08-05T02:22:09.897Z,10.77
2022-08-05T02:25:00.197Z,10.65
2022-08-05T02:27:58.423Z,12.07
2022-08-05T02:30:19.158Z,11.55
2022-08-05T02:32:51.692Z,11.60
2022-08-05T02:35:28.021Z,11.55
2022-08-05T02:38:02.136Z,13.10
2022-08-05T02:40:31.219Z,11.38
2022-08-05T02:43:00.818Z,12.90
2022-08-05T02:45:52.080Z,13.13
2022-08-05T02:48:20.037Z,13.52
2022-08-05T02:51:00.393Z,14.20
2022-08-05T02:53:39.370Z,14.13
2022-08-05T02:56:09.540Z,14.32
2022-08-05T02:58:43.773Z,14.77
2022-08-05T03:01:16.830Z,14.75
2022-08-05T03:04:03.043Z,14.73
2022-08-05T03:06:55.387Z,13.82
2022-08-05T03:09:36.549Z,15.90
2022-08-05T03:12:07.854Z,15.05
2022-08-05T03:14:45.678Z,15.45
2022-08-05T03:17:13.929Z,15.77
2022-08-05T03:19:45.777Z,16.77
2022-08-05T03:22:16.824Z,16.08
2022-08-05T03:24:51.040Z,17.52
2022-08-05T03:27:21.929Z,19.08
2022-08-05T03:30:08.111Z,18.42
2022-08-05T03:32:37.187Z,16.55
2022-08-05T03:35:08.987Z,18.15
2022-08-05T03:37:41.727Z,16.35
2022-08-05T03:40:15.260Z,14.43
2022-08-05T03:42:52.995Z,17.70
2022-08-05T03:45:23.340Z,17.50
2022-08-05T03:47:51.877Z,17.20
2022-08-05T03:50:27.822Z,16.35
2022-08-05T03:55:34.040Z,17.15
2022-08-05T03:56:17.110Z,17.13
2022-08-05T03:58:48.426Z,19.15
2022-08-05T04:01:22.048Z,17.05
2022-08-05T04:04:09.228Z,19.38
2022-08-05T04:06:47.767Z,18.83
2022-08-05T04:09:20.435Z,19.35
2022-08-05T04:11:56.799Z,16.80
2022-08-05T04:14:30.437Z,17.45
2022-08-05T04:16:59.930Z,19.35
2022-08-05T04:19:29.086Z,14.85
2022-08-05T04:22:10.007Z,14.93
2022-08-05T04:24:43.869Z,14.13
2022-08-05T04:27:13.100Z,17.85
2022-08-05T04:29:41.820Z,15.07
2022-08-05T04:32:10.562Z,16.85
2022-08-05T04:34:43.050Z,15.70
2022-08-05T04:37:12.946Z,15.63
2022-08-05T04:39:41.138Z,17.38
2022-08-05T04:42:09.983Z,16.67
2022-08-05T04:44:39.066Z,14.40
2022-08-05T04:47:09.697Z,16.98
2022-08-05T04:50:01.485Z,16.48
2022-08-05T04:52:28.737Z,17.50
2022-08-05T04:54:57.793Z,21.73
2022-08-05T04:57:28.514Z,20.05
2022-08-05T04:59:58.360Z,17.80
2022-08-05T05:02:41.997Z,18.73
2022-08-05T05:05:26.363Z,18.10
2022-08-05T05:08:02.412Z,19.15
2022-08-05T05:10:33.118Z,18.08
2022-08-05T05:13:04.353Z,16.92
2022-08-05T05:15:57.365Z,17.05
2022-08-05T05:18:31.610Z,18.73
2022-08-05T05:21:03.459Z,17.77
2022-08-05T05:23:39.310Z,19.13
2022-08-05T05:26:28.460Z,22.13
2022-08-05T05:29:01.284Z,20.42
2022-08-05T05:34:02.176Z,20.00
2022-08-05T05:36:31.651Z,21.20
2022-08-05T05:39:03.817Z,20.48
2022-08-05T05:41:40.622Z,19.88
2022-08-05T05:44:34.490Z,25.85
2022-08-05T05:47:04.181Z,24.52
2022-08-05T05:49:35.779Z,22.65
2022-08-05T05:52:07.291Z,21.83
2022-08-05T05:54:50.427Z,24.67
2022-08-05T05:57:19.548Z,24.27
2022-08-05T05:59:47.876Z,22.23
2022-08-05T06:02:17.335Z,22.52
2022-08-05T06:05:01.385Z,22.50
2022-08-05T06:07:41.797Z,22.83
2022-08-05T06:10:12.642Z,21.33
2022-08-05T06:12:42.326Z,20.52
2022-08-05T06:15:16.389Z,22.67
2022-08-05T06:17:53.352Z,26.52
2022-08-05T06:20:47.764Z,23.92
2022-08-05T06:23:15.949Z,20.33
2022-08-05T06:26:12.684Z,21.30
2022-08-05T06:28:33.524Z,21.95
2022-08-05T06:31:02.018Z,19.45
2022-08-05T06:34:07.071Z,18.90
2022-08-05T06:36:27.349Z,18.13
2022-08-05T06:39:09.015Z,17.95
2022-08-05T06:41:40.552Z,16.48
2022-08-05T06:44:09.351Z,17.33
2022-08-05T06:46:37.339Z,15.25
2022-08-05T06:49:05.743Z,13.88
2022-08-05T06:51:35.701Z,15.73
2022-08-05T06:54:08.759Z,15.43
2022-08-05T06:56:41.405Z,16.10
2022-08-05T06:59:23.211Z,15.32
2022-08-05T07:01:52.941Z,15.02
2022-08-05T07:04:21.221Z,15.98
2022-08-05T07:06:50.420Z,12.57
2022-08-05T07:09:18.618Z,15.70
2022-08-05T07:11:51.431Z,20.02
2022-08-05T07:14:37.487Z,26.77
2022-08-05T07:18:00.227Z,27.38
2022-08-05T07:20:31.336Z,24.25
2022-08-05T07:22:43.214Z,24.42
2022-08-05T07:25:55.407Z,20.77
2022-08-05T07:28:09.726Z,22.63
2022-08-05T07:30:40.579Z,19.13
2022-08-05T07:33:17.112Z,19.27
2022-08-05T07:36:04.525Z,17.17
2022-08-05T07:38:43.369Z,17.75
2022-08-05T07:42:08.235Z,16.33
2022-08-05T07:44:14.323Z,15.65
2022-08-05T07:46:49.307Z,14.93
2022-08-05T07:49:18.893Z,12.13
2022-08-05T07:51:53.422Z,12.15
2022-08-05T07:54:31.699Z,13.70
2022-08-05T07:57:22.539Z,14.25
2022-08-05T07:59:51.871Z,14.35
2022-08-05T08:02:26.848Z,14.85
2022-08-05T08:04:59.925Z,14.48
2022-08-05T08:07:29.145Z,14.90
2022-08-05T08:10:08.944Z,14.18
2022-08-05T08:12:49.806Z,13.98
2022-08-05T08:15:37.110Z,13.35
2022-08-05T08:18:13.758Z,13.02
2022-08-05T08:21:00.126Z,11.95
2022-08-05T08:24:01.106Z,11.73
2022-08-05T08:26:29.364Z,10.40
2022-08-05T08:29:09.659Z,12.82
2022-08-05T08:31:48.695Z,11.60
2022-08-05T08:34:16.820Z,10.50
2022-08-05T08:36:54.012Z,10.35
2022-08-05T08:39:24.821Z,11.02
2022-08-05T08:41:59.707Z,9.48
2022-08-05T08:45:19.797Z,11.20
2022-08-05T08:48:05.565Z,9.73
2022-08-05T08:50:30.997Z,9.90
2022-08-05T08:53:08.036Z,9.98
2022-08-05T08:56:04.146Z,11.00
2022-08-05T08:58:44.036Z,11.27
2022-08-05T09:01:17.984Z,10.23
2022-08-05T09:03:55.611Z,9.15
2022-08-05T09:06:29.147Z,10.23
2022-08-05T09:08:59.895Z,10.38
2022-08-05T09:11:51.004Z,10.85
2022-08-05T09:14:57.152Z,11.23
2022-08-05T09:17:08.253Z,10.68
2022-08-05T09:20:01.933Z,10.48
2022-08-05T09:22:32.109Z,9.68
2022-08-05T09:25:13.502Z,9.52
2022-08-05T09:28:05.338Z,10.05
2022-08-05T09:30:30.271Z,9.85
2022-08-05T09:33:02.578Z,9.50
2022-08-05T09:35:34.329Z,10.00
2022-08-05T09:38:12.254Z,9.60
2022-08-05T09:40:52.131Z,9.50
2022-08-05T09:43:41.366Z,9.63
2022-08-05T09:46:27.617Z,9.98
2022-08-05T09:49:07.606Z,9.05
2022-08-05T09:51:49.598Z,8.10
2022-08-05T09:54:30.999Z,8.70
2022-08-05T09:57:01.741Z,8.48
2022-08-05T09:59:35.159Z,7.72
2022-08-05T10:02:05.306Z,7.85
2022-08-05T10:04:38.412Z,7.70
2022-08-05T10:07:20.366Z,8.23
2022-08-05T10:10:13.756Z,7.60
2022-08-05T10:12:49.708Z,8.00
2022-08-05T10:15:24.174Z,7.60
2022-08-05T10:18:13.157Z,8.10
2022-08-05T10:20:47.737Z,8.80
2022-08-05T10:23:34.321Z,8.10
2022-08-05T10:26:14.600Z,7.30
2022-08-05T10:28:43.904Z,8.00
2022-08-05T10:32:48.446Z,8.50
2022-08-05T10:34:02.315Z,7.85
2022-08-05T10:36:31.285Z,8.52
2022-08-05T10:39:10.326Z,8.15
2022-08-05T10:41:54.999Z,8.63
2022-08-05T10:44:26.730Z,9.05
2022-08-05T10:46:56.926Z,8.15
2022-08-05T10:49:26.901Z,7.97
2022-08-05T10:52:03.323Z,8.68
2022-08-05T10:55:03.484Z,7.57
2022-08-05T10:57:33.838Z,9.13
2022-08-05T11:00:19.127Z,9.10
2022-08-05T11:03:23.668Z,9.07
2022-08-05T11:06:15.837Z,10.02
2022-08-05T11:09:16.977Z,10.80
2022-08-05T11:11:53.699Z,10.18
2022-08-05T11:17:59.519Z,12.82
2022-08-05T11:20:41.957Z,13.18
2022-08-05T11:24:05.093Z,14.35
2022-08-05T11:26:33.557Z,14.38
2022-08-05T11:29:12.756Z,14.45
2022-08-05T11:31:57.203Z,13.60
2022-08-05T11:34:40.155Z,13.48
2022-08-05T11:38:29.277Z,14.05
2022-08-05T11:41:34.775Z,12.90
2022-08-05T11:44:04.552Z,13.18
2022-08-05T11:46:37.810Z,13.88
2022-08-05T11:49:25.678Z,13.40
2022-08-05T11:51:54.368Z,11.68
2022-08-05T11:54:33.383Z,13.07
2022-08-05T11:57:08.588Z,12.70
2022-08-05T11:59:51.918Z,11.27
2022-08-05T12:02:30.230Z,10.82
2022-08-05T12:05:06.968Z,10.65
2022-08-05T12:08:07.860Z,10.45
2022-08-05T12:10:43.633Z,10.68
2022-08-05T12:13:28.020Z,11.30
2022-08-05T12:16:15.398Z,9.95
2022-08-05T12:18:49.305Z,10.23
2022-08-05T12:21:23.939Z,10.75
2022-08-05T12:23:59.961Z,11.05
2022-08-05T12:26:36.418Z,11.63
2022-08-05T12:29:09.458Z,10.65
2022-08-05T12:31:43.679Z,10.63
2022-08-05T12:34:20.528Z,10.88
2022-08-05T12:36:51.741Z,10.45
2022-08-05T12:39:20.186Z,9.93
2022-08-05T12:41:48.705Z,8.15
2022-08-05T12:44:21.882Z,6.97
2022-08-05T12:47:02.727Z,6.00
2022-08-05T12:50:01.969Z,6.00
2022-08-05T12:52:39.425Z,5.00
2022-08-05T12:55:22.786Z,4.95
2022-08-05T12:58:52.568Z,4.50
2022-08-05T13:02:00.938Z,3.92
2022-08-05T13:03:33.144Z,3.75
2022-08-05T13:06:02.800Z,3.88
2022-08-05T13:08:32.778Z,3.75
2022-08-05T13:11:01.971Z,3.80
2022-08-05T13:14:04.607Z,3.85
2022-08-05T13:16:24.990Z,3.85
2022-08-05T13:18:57.908Z,3.40
2022-08-05T13:21:37.661Z,3.03
2022-08-05T13:24:08.709Z,2.80
2022-08-05T13:26:37.164Z,2.60
2022-08-05T13:29:05.583Z,2.83
2022-08-05T13:32:04.885Z,2.47
2022-08-05T13:34:25.903Z,2.47
2022-08-05T13:36:55.797Z,2.42
2022-08-05T13:39:24.630Z,2.35
2022-08-05T13:42:14.552Z,2.20
2022-08-05T13:44:45.677Z,1.80
2022-08-05T13:47:36.040Z,1.77
2022-08-05T13:50:04.610Z,1.77
2022-08-05T13:52:35.953Z,1.70
2022-08-05T13:55:07.382Z,1.55
2022-08-05T13:57:50.952Z,1.50
2022-08-05T14:00:27.650Z,1.60
2022-08-05T14:02:56.972Z,1.38
2022-08-05T14:05:29.393Z,1.50
2022-08-05T14:08:20.809Z,1.40
2022-08-05T14:11:03.261Z,1.70
2022-08-05T14:13:48.295Z,1.73
2022-08-05T14:16:16.760Z,1.35
2022-08-05T14:18:45.238Z,1.38
2022-08-05T14:22:07.203Z,1.42
2022-08-05T14:24:02.760Z,1.50
2022-08-05T14:26:36.957Z,1.30
2022-08-05T14:29:16.737Z,1.40
2022-08-05T14:32:02.672Z,1.60
2022-08-05T14:34:35.254Z,1.40
2022-08-05T14:37:04.205Z,1.77
2022-08-05T14:39:50.120Z,1.60
2022-08-05T14:42:22.962Z,1.50
2022-08-05T14:44:53.272Z,1.45
2022-08-05T14:48:02.461Z,1.60
2022-08-05T14:50:17.708Z,1.50
2022-08-05T14:52:53.392Z,1.60
2022-08-05T14:55:38.759Z,1.70
2022-08-05T14:58:11.296Z,1.73
2022-08-05T15:00:58.680Z,1.95
2022-08-05T15:03:33.095Z,2.03
2022-08-05T15:06:08.030Z,1.90
2022-08-05T15:09:01.520Z,1.90
2022-08-05T15:11:52.793Z,1.88
2022-08-05T15:14:33.584Z,1.77
2022-08-05T15:17:05.400Z,1.63
2022-08-05T15:19:38.178Z,1.70
2022-08-05T15:22:08.780Z,1.70
2022-08-05T15:24:39.630Z,1.67
2022-08-05T15:27:09.325Z,1.65
2022-08-05T15:29:41.772Z,1.67
2022-08-05T15:32:10.322Z,1.73
2022-08-05T15:34:38.609Z,1.77
2022-08-05T15:37:14.858Z,1.50
2022-08-05T15:40:58.761Z,2.00
2022-08-05T15:42:55.195Z,1.67
2022-08-05T15:45:37.130Z,2.03
2022-08-05T15:48:07.052Z,1.77
2022-08-05T15:50:35.142Z,1.60
2022-08-05T15:53:05.581Z,1.67
2022-08-05T15:56:02.686Z,1.85
2022-08-05T15:58:23.428Z,1.70
2022-08-05T16:01:11.735Z,1.60
2022-08-05T16:03:41.071Z,1.77
2022-08-05T16:06:11.239Z,2.00
2022-08-05T16:08:40.116Z,1.90
2022-08-05T16:11:08.471Z,1.80
2022-08-05T16:13:38.043Z,1.70
2022-08-05T16:16:06.962Z,1.90
2022-08-05T16:18:52.805Z,2.20
2022-08-05T16:21:58.705Z,1.70
2022-08-05T16:24:12.886Z,1.90
2022-08-05T16:26:58.936Z,1.80
2022-08-05T16:29:31.227Z,2.03
2022-08-05T16:32:06.462Z,1.80
2022-08-05T16:34:39.351Z,1.98
2022-08-05T16:38:03.007Z,2.38
2022-08-05T16:40:04.584Z,1.90
2022-08-05T16:42:36.017Z,2.35
2022-08-05T16:46:03.761Z,2.03
2022-08-05T16:47:58.469Z,2.00
2022-08-05T16:50:30.503Z,2.17
2022-08-05T16:53:12.061Z,2.28
2022-08-05T16:55:48.419Z,2.28
2022-08-05T16:58:19.849Z,2.22
2022-08-05T17:00:49.789Z,2.20
2022-08-05T17:03:20.623Z,2.30
2022-08-05T17:05:53.916Z,2.55
2022-08-05T17:08:35.757Z,2.65
2022-08-05T17:11:12.845Z,2.40
2022-08-05T17:13:45.392Z,2.38
2022-08-05T17:16:33.688Z,3.00
2022-08-05T17:19:03.212Z,2.42
2022-08-05T17:21:37.021Z,2.63
2022-08-05T17:24:18.397Z,2.33
2022-08-05T17:26:49.196Z,2.45
2022-08-05T17:29:17.272Z,2.60
2022-08-05T17:31:58.653Z,2.63
2022-08-05T17:34:29.895Z,2.65
2022-08-05T17:37:00.642Z,2.40
2022-08-05T17:39:33.186Z,2.60
2022-08-05T17:42:28.612Z,2.45
2022-08-05T17:44:51.593Z,2.67
2022-08-05T17:47:22.160Z,2.60
2022-08-05T17:49:59.800Z,2.40
2022-08-05T17:52:29.475Z,2.50
2022-08-05T17:54:57.548Z,2.40
2022-08-05T17:57:25.601Z,2.50
2022-08-05T18:00:03.538Z,2.75
2022-08-05T18:02:35.580Z,3.03
2022-08-05T18:05:07.570Z,2.72
2022-08-05T18:07:41.503Z,2.60
2022-08-05T18:10:14.102Z,2.58
2022-08-05T18:12:49.491Z,2.40
2022-08-05T18:15:17.581Z,2.38
2022-08-05T18:18:01.553Z,2.10
2022-08-05T18:20:32.986Z,1.92
2022-08-05T18:23:11.206Z,2.53
2022-08-05T18:25:45.578Z,2.20
2022-08-05T18:28:16.597Z,2.33
2022-08-05T18:30:45.413Z,2.20
2022-08-05T18:33:22.741Z,2.13
2022-08-05T18:36:03.500Z,2.33
2022-08-05T18:38:35.785Z,2.42
2022-08-05T18:41:57.045Z,2.40
2022-08-05T18:43:52.307Z,2.30
2022-08-05T18:46:20.792Z,2.60
2022-08-05T18:48:51.790Z,2.58
2022-08-05T18:52:02.697Z,2.40
2022-08-05T18:54:26.484Z,2.30
2022-08-05T18:56:57.194Z,2.15
2022-08-05T18:59:42.811Z,3.03
2022-08-05T19:02:27.985Z,2.80
2022-08-05T19:06:05.736Z,2.75
2022-08-05T19:07:50.251Z,2.35
2022-08-05T19:10:27.954Z,2.63
2022-08-05T19:12:56.702Z,2.30
2022-08-05T19:15:57.128Z,2.58
2022-08-05T19:18:21.988Z,2.55
2022-08-05T19:20:53.112Z,2.63
2022-08-05T19:24:03.689Z,2.83
2022-08-05T19:26:11.787Z,3.15
2022-08-05T19:28:42.183Z,3.15
2022-08-05T19:31:13.533Z,3.38
2022-08-05T19:33:48.207Z,2.55
2022-08-05T19:36:26.077Z,2.70
2022-08-05T19:39:01.095Z,2.60
2022-08-05T19:41:58.541Z,2.88
2022-08-05T19:44:19.044Z,2.53
2022-08-05T19:46:47.464Z,2.58
2022-08-05T19:49:18.433Z,2.55
2022-08-05T19:52:08.431Z,2.85
2022-08-05T19:54:36.942Z,2.78
2022-08-05T19:57:09.730Z,2.80
2022-08-05T19:59:56.334Z,3.00
2022-08-05T20:02:30.438Z,3.13
2022-08-05T20:04:59.967Z,2.72
2022-08-05T20:07:46.214Z,2.63
2022-08-05T20:10:19.429Z,3.00
2022-08-05T20:12:50.761Z,2.75
2022-08-05T20:15:48.043Z,3.20
2022-08-05T20:18:10.819Z,3.00
2022-08-05T20:20:57.617Z,2.55
2022-08-05T20:23:39.873Z,2.80
2022-08-05T20:26:19.488Z,3.25
2022-08-05T20:28:50.411Z,2.90
2022-08-05T20:31:23.069Z,3.38
2022-08-05T20:34:05.208Z,2.60
2022-08-05T20:36:33.232Z,3.00
2022-08-05T20:39:03.325Z,3.00
2022-08-05T20:41:44.549Z,3.10
2022-08-05T20:44:19.328Z,3.15
2022-08-05T20:46:57.919Z,3.53
2022-08-05T20:49:26.388Z,3.00
2022-08-05T20:51:54.745Z,3.00
2022-08-05T20:54:25.416Z,3.38
2022-08-05T20:56:53.542Z,3.30
2022-08-05T20:59:26.943Z,3.15
2022-08-05T21:02:10.183Z,2.92
2022-08-05T21:04:39.078Z,3.38
2022-08-05T21:07:08.913Z,3.10
2022-08-05T21:09:38.467Z,2.45
2022-08-05T21:12:21.639Z,2.30
2022-08-05T21:14:54.209Z,2.10
2022-08-05T21:17:25.697Z,1.60
2022-08-05T21:19:56.448Z,1.73
2022-08-05T21:22:26.994Z,1.77
2022-08-05T21:24:57.760Z,1.40
2022-08-05T21:27:27.410Z,1.60
2022-08-05T21:29:56.569Z,1.48
2022-08-05T21:32:26.639Z,1.48
2022-08-05T21:35:17.284Z,1.40
2022-08-05T21:37:47.294Z,1.50
2022-08-05T21:40:23.678Z,1.52
2022-08-05T21:42:53.614Z,1.40
2022-08-05T21:45:24.967Z,1.65
2022-08-05T21:48:08.224Z,1.90
2022-08-05T21:50:37.366Z,1.48
2022-08-05T21:53:17.706Z,1.67
2022-08-05T21:56:04.647Z,1.73
2022-08-05T21:58:34.804Z,1.45
2022-08-05T22:01:05.607Z,1.50
2022-08-05T22:03:48.596Z,1.45
2022-08-05T22:06:22.897Z,1.80
2022-08-05T22:09:13.721Z,1.60
2022-08-05T22:11:47.202Z,1.50
2022-08-05T22:14:35.471Z,1.70
2022-08-05T22:17:06.667Z,2.03
2022-08-05T22:20:00.190Z,1.85
2022-08-05T22:22:28.011Z,1.90
2022-08-05T22:25:21.342Z,1.70
2022-08-05T22:28:08.219Z,2.13
2022-08-05T22:30:55.482Z,1.73
2022-08-05T22:33:57.631Z,2.00
2022-08-05T22:36:14.605Z,1.80
2022-08-05T22:38:43.813Z,1.87
2022-08-05T22:41:16.755Z,2.13
2022-08-05T22:44:06.726Z,1.60
2022-08-05T22:46:39.979Z,1.97
2022-08-05T22:49:23.590Z,1.70
2022-08-05T22:52:05.693Z,1.70
2022-08-05T22:54:35.873Z,1.97
2022-08-05T22:57:04.019Z,2.10
2022-08-05T22:59:48.576Z,1.80
2022-08-05T23:02:29.076Z,1.90
2022-08-05T23:05:01.854Z,1.97
2022-08-05T23:07:45.273Z,1.60
2022-08-05T23:10:20.125Z,1.97
2022-08-05T23:12:51.092Z,2.07
2022-08-05T23:15:21.395Z,1.77
2022-08-05T23:18:00.452Z,1.90
2022-08-05T23:20:31.488Z,1.77
2022-08-05T23:23:00.450Z,1.83
2022-08-05T23:25:52.672Z,1.67
2022-08-05T23:28:19.714Z,1.90
2022-08-05T23:30:52.800Z,1.90
2022-08-05T23:33:26.443Z,2.10
2022-08-05T23:36:10.661Z,1.73
2022-08-05T23:38:38.817Z,1.97
2022-08-05T23:41:07.130Z,1.90
2022-08-05T23:44:03.212Z,1.90
2022-08-05T23:46:26.392Z,2.00
2022-08-05T23:49:00.817Z,1.77
2022-08-05T23:51:54.142Z,1.60
2022-08-05T23:54:25.578Z,1.60
2022-08-05T23:56:55.505Z,1.67
2022-08-05T23:59:27.758Z,1.60
